Sogndal, Sogndal Airport (ENSG)

NameSogndal Airport
CitySogndal
CountryNorway
ICAOENSG
IATASOG
Altitude1633 feet
CoordinatesGoogle Map
Live Air TrafficLiveATC.net
METARENSG 230720Z VRB02KT 9999 FEW010 14/09 Q1013 RMK WIND 3806FT 33003KT
2024-07-23 07:20:00 Wind: North (0°) 1.03 m/s - Visibility: > 10000 m - Temperature: 14 °C - Dew point: 9 °C - Humidity: 72.1% - Pressure: 1013 hPa

Sorry, no flights used the airport in this database.